Time;durP1;ratioP1;P1;durP2;ratioP2;P2;SDS_P1;SDS_P2;PMS_P1;PMS_P2;Temp;Humidity;BMP_temperature;BMP_pressure;BME280_temperature;BME280_humidity;BME280_pressure;Samples;Min_cycle;Max_cycle;Signal;HPM_P1;HPM_P2
2024/04/18 00:01:43;;;;;;;4.00;1.67;;;14.50;68.10;;;;;;4494461;26;20013;-53
2024/04/18 00:04:30;;;;;;;4.70;0.93;;;14.50;68.10;;;;;;4495406;26;20072;-51
2024/04/18 00:07:16;;;;;;;2.08;1.42;;;14.50;68.40;;;;;;4466298;26;20085;-53
2024/04/18 00:10:17;;;;;;;4.75;1.00;;;14.50;68.40;;;;;;4464635;26;20043;-51
2024/04/18 00:13:04;;;;;;;1.63;0.88;;;14.50;68.60;;;;;;4463280;26;20064;-52
2024/04/18 00:16:05;;;;;;;7.47;1.10;;;14.50;68.40;;;;;;4448982;26;20023;-58
2024/04/18 00:18:48;;;;;;;1.42;1.02;;;14.50;68.70;;;;;;4466416;26;20018;-57
2024/04/18 00:21:38;;;;;;;1.42;0.77;;;14.50;68.70;;;;;;4450169;26;20026;-57
2024/04/18 00:24:40;;;;;;;1.33;0.90;;;14.40;68.70;;;;;;4470419;26;20047;-59
2024/04/18 00:27:32;;;;;;;2.17;1.05;;;14.40;68.80;;;;;;4475611;26;20029;-54
2024/04/18 00:30:18;;;;;;;2.45;0.60;;;14.40;68.80;;;;;;4467053;26;20076;-53
2024/04/18 00:33:03;;;;;;;0.90;0.70;;;14.40;68.70;;;;;;4461979;26;20014;-54
2024/04/18 00:35:52;;;;;;;1.52;0.80;;;14.40;68.80;;;;;;4466148;26;20148;-53
2024/04/18 00:38:33;;;;;;;2.35;0.50;;;14.40;68.90;;;;;;4484342;26;20072;-51
2024/04/18 00:41:16;;;;;;;2.80;1.40;;;14.40;69.20;;;;;;4463898;26;20050;-54
2024/04/18 00:44:10;;;;;;;2.53;0.52;;;14.40;69.00;;;;;;4464834;26;20022;-51
2024/04/18 00:46:55;;;;;;;1.25;0.70;;;14.30;69.10;;;;;;4464613;26;20014;-54
2024/04/18 00:49:43;;;;;;;2.38;0.80;;;14.40;69.00;;;;;;4494892;26;20029;-53
2024/04/18 00:52:26;;;;;;;2.42;0.60;;;14.30;69.00;;;;;;4495853;26;20017;-54
2024/04/18 00:55:07;;;;;;;1.58;0.70;;;14.30;69.10;;;;;;4491784;26;20187;-53
2024/04/18 00:57:51;;;;;;;1.98;0.60;;;14.30;69.10;;;;;;4490266;26;20017;-50
2024/04/18 01:00:33;;;;;;;0.80;0.60;;;14.30;69.20;;;;;;4495520;26;20016;-52
2024/04/18 01:03:39;;;;;;;0.85;0.70;;;14.30;69.20;;;;;;4494934;26;20372;-54
2024/04/18 01:06:22;;;;;;;0.55;0.55;;;14.30;69.30;;;;;;4487928;26;20022;-51
2024/04/18 01:09:38;;;;;;;0.65;0.40;;;14.30;69.30;;;;;;4493211;26;20077;-52
2024/04/18 01:12:24;;;;;;;2.13;0.50;;;14.30;69.60;;;;;;4497234;26;20091;-54
2024/04/18 01:15:05;;;;;;;1.50;0.55;;;14.30;69.50;;;;;;4513744;26;20099;-51
2024/04/18 01:17:49;;;;;;;2.13;0.63;;;14.20;69.50;;;;;;4494046;26;20017;-57
2024/04/18 01:20:32;;;;;;;2.33;0.75;;;14.20;69.40;;;;;;4494482;26;20101;-58
2024/04/18 01:23:15;;;;;;;3.95;0.70;;;14.20;69.30;;;;;;4481473;26;20464;-57
2024/04/18 01:25:56;;;;;;;4.07;0.80;;;14.20;69.50;;;;;;4466907;26;20344;-57
2024/04/18 01:28:42;;;;;;;0.73;0.50;;;14.20;69.50;;;;;;4468171;26;20026;-56
2024/04/18 01:31:42;;;;;;;2.97;0.70;;;14.20;69.50;;;;;;4467943;26;20552;-57
2024/04/18 01:34:25;;;;;;;0.60;0.60;;;14.20;69.80;;;;;;4461921;26;20010;-57
2024/04/18 01:37:24;;;;;;;1.02;0.70;;;14.20;69.60;;;;;;4463820;26;20011;-56
2024/04/18 01:40:08;;;;;;;1.17;0.80;;;14.20;69.90;;;;;;4465244;26;20010;-57
2024/04/18 01:42:53;;;;;;;1.00;0.60;;;14.20;69.80;;;;;;4459737;26;20037;-57
2024/04/18 01:45:42;;;;;;;1.70;0.68;;;14.10;69.70;;;;;;4478947;26;20010;-57
2024/04/18 01:48:25;;;;;;;0.90;0.60;;;14.10;69.70;;;;;;4464143;26;20009;-57
2024/04/18 01:51:28;;;;;;;2.55;0.80;;;14.10;69.90;;;;;;4456278;26;20014;-53
2024/04/18 01:54:08;;;;;;;4.30;0.60;;;14.10;69.90;;;;;;4462792;26;20382;-53
2024/04/18 01:57:09;;;;;;;0.40;0.40;;;14.10;69.90;;;;;;4443487;26;20040;-53
2024/04/18 02:00:12;;;;;;;4.10;0.90;;;14.10;70.00;;;;;;4493884;26;20010;-54
2024/04/18 02:02:55;;;;;;;3.10;0.80;;;14.10;70.10;;;;;;4497469;26;20005;-55
2024/04/18 02:05:57;;;;;;;2.28;0.55;;;14.10;69.90;;;;;;4494992;26;20017;-53
2024/04/18 02:08:57;;;;;;;1.05;0.60;;;14.00;70.10;;;;;;4494487;26;20079;-54
2024/04/18 02:11:59;;;;;;;0.75;0.63;;;14.00;70.20;;;;;;4494684;26;20012;-51
2024/04/18 02:14:59;;;;;;;2.22;0.47;;;14.00;70.20;;;;;;4495832;26;20076;-51
2024/04/18 02:17:42;;;;;;;0.73;0.70;;;14.00;70.30;;;;;;4465075;26;20081;-55
2024/04/18 02:20:26;;;;;;;6.32;0.63;;;14.00;70.20;;;;;;4443962;26;20076;-50
2024/04/18 02:23:29;;;;;;;2.22;0.60;;;14.00;70.10;;;;;;4463403;26;20015;-54
2024/04/18 02:26:10;;;;;;;1.92;0.60;;;14.00;70.30;;;;;;4481789;26;20045;-52
2024/04/18 02:28:53;;;;;;;0.83;0.60;;;14.00;70.20;;;;;;4496066;26;20071;-54
2024/04/18 02:31:33;;;;;;;2.13;0.68;;;14.00;70.20;;;;;;4462378;26;20051;-49
2024/04/18 02:34:36;;;;;;;1.73;0.60;;;14.00;70.20;;;;;;4495945;26;20427;-53
2024/04/18 02:37:40;;;;;;;1.02;0.82;;;14.00;70.30;;;;;;4466040;26;20050;-53
2024/04/18 02:40:23;;;;;;;3.17;1.00;;;13.90;70.30;;;;;;4463956;26;20018;-55
2024/04/18 02:43:13;;;;;;;2.80;1.00;;;13.90;70.20;;;;;;4467622;26;20089;-53
2024/04/18 02:45:56;;;;;;;2.70;0.70;;;13.90;70.30;;;;;;4466834;26;20188;-52
2024/04/18 02:48:42;;;;;;;1.27;0.95;;;13.90;70.30;;;;;;4455155;26;20327;-54
2024/04/18 02:51:38;;;;;;;0.82;0.68;;;13.90;70.30;;;;;;4474118;26;20515;-54
2024/04/18 02:54:41;;;;;;;0.85;0.73;;;13.90;70.20;;;;;;4457191;26;20010;-52
2024/04/18 02:57:25;;;;;;;2.20;0.93;;;13.90;70.40;;;;;;4472895;26;20109;-52
2024/04/18 03:00:07;;;;;;;0.65;0.60;;;13.90;70.40;;;;;;4483178;26;20084;-54
2024/04/18 03:02:52;;;;;;;1.88;0.80;;;13.90;70.40;;;;;;4498171;26;20910;-53
2024/04/18 03:05:33;;;;;;;0.55;0.50;;;13.90;70.30;;;;;;4491270;26;20096;-54
2024/04/18 03:08:16;;;;;;;3.20;0.90;;;13.90;70.40;;;;;;4496573;26;20052;-54
2024/04/18 03:10:59;;;;;;;1.27;0.70;;;13.80;70.30;;;;;;4497931;26;20021;-53
2024/04/18 03:13:51;;;;;;;0.60;0.60;;;13.80;70.30;;;;;;4493181;26;20095;-53
2024/04/18 03:16:44;;;;;;;1.17;0.65;;;13.80;70.50;;;;;;4466203;26;20088;-53
2024/04/18 03:19:33;;;;;;;3.03;0.82;;;13.80;70.50;;;;;;4468216;26;20010;-53
2024/04/18 03:22:13;;;;;;;0.75;0.65;;;13.80;70.50;;;;;;4458331;26;20014;-53
2024/04/18 03:25:12;;;;;;;1.13;0.77;;;13.80;70.50;;;;;;4465795;26;20068;-55
2024/04/18 03:28:15;;;;;;;1.10;0.70;;;13.80;70.60;;;;;;4463820;26;20014;-54
2024/04/18 03:30:58;;;;;;;1.25;0.80;;;13.80;70.60;;;;;;4459653;26;20080;-52
2024/04/18 03:33:39;;;;;;;1.23;0.80;;;13.70;70.60;;;;;;4489942;26;20136;-54
2024/04/18 03:36:23;;;;;;;2.03;0.70;;;13.70;70.50;;;;;;4464055;26;20072;-53
2024/04/18 03:39:06;;;;;;;4.07;0.82;;;13.70;70.50;;;;;;4462524;26;20267;-53
2024/04/18 03:41:49;;;;;;;1.55;0.75;;;13.70;70.60;;;;;;4454705;26;20010;-58
2024/04/18 03:44:36;;;;;;;1.83;0.75;;;13.80;70.50;;;;;;4480019;26;20504;-59
2024/04/18 03:47:17;;;;;;;2.05;0.80;;;13.70;70.40;;;;;;4464480;26;20013;-59
2024/04/18 03:50:19;;;;;;;3.00;0.65;;;13.70;70.50;;;;;;4465273;26;20014;-60
2024/04/18 03:52:59;;;;;;;1.40;0.70;;;13.70;70.70;;;;;;4463559;26;20014;-60
2024/04/18 03:56:08;;;;;;;1.27;0.80;;;13.70;70.60;;;;;;4459785;26;20104;-58
2024/04/18 03:58:50;;;;;;;1.88;0.60;;;13.70;70.70;;;;;;4496152;26;20014;-58
2024/04/18 04:01:36;;;;;;;;;;;13.70;70.70;;;;;;4406803;26;20318;-54
2024/04/18 04:04:16;;;;;;;1.55;0.73;;;13.70;70.70;;;;;;4486638;26;20019;-54
2024/04/18 04:07:01;;;;;;;1.77;0.90;;;13.60;71.30;;;;;;4462351;26;20011;-54
2024/04/18 04:09:44;;;;;;;1.77;0.82;;;13.60;71.10;;;;;;4466629;26;20349;-53
2024/04/18 04:12:31;;;;;;;2.10;0.80;;;13.70;71.10;;;;;;4503326;26;20457;-52
2024/04/18 04:15:20;;;;;;;1.38;0.70;;;13.60;70.90;;;;;;4464134;26;20018;-54
2024/04/18 04:18:19;;;;;;;3.72;0.77;;;13.60;70.90;;;;;;4484366;26;20079;-52
2024/04/18 04:21:00;;;;;;;4.07;1.10;;;13.60;71.00;;;;;;4481240;26;20781;-55
2024/04/18 04:23:43;;;;;;;3.13;0.98;;;13.60;70.90;;;;;;4491241;26;20005;-53
2024/04/18 04:26:23;;;;;;;0.93;0.50;;;13.60;70.90;;;;;;4482364;26;20073;-53
2024/04/18 04:29:07;;;;;;;3.17;0.80;;;13.60;70.90;;;;;;4466436;26;20080;-50
2024/04/18 04:31:48;;;;;;;2.63;0.85;;;13.60;70.90;;;;;;4465461;26;20011;-53
2024/04/18 04:34:34;;;;;;;2.65;0.80;;;13.60;70.90;;;;;;4484174;26;20465;-54
2024/04/18 04:37:14;;;;;;;4.75;1.00;;;13.50;70.80;;;;;;4468559;26;20292;-54
2024/04/18 04:40:00;;;;;;;2.75;0.90;;;13.50;70.80;;;;;;4494987;26;20034;-54
2024/04/18 04:42:43;;;;;;;4.22;0.80;;;13.60;70.90;;;;;;4483970;26;20408;-52
2024/04/18 04:45:23;;;;;;;2.30;0.98;;;13.50;70.80;;;;;;4462793;26;20014;-51
2024/04/18 04:48:22;;;;;;;4.97;1.15;;;13.50;70.80;;;;;;4465726;26;20015;-55
2024/04/18 04:51:27;;;;;;;3.40;0.95;;;13.50;70.80;;;;;;4450077;26;20163;-54
2024/04/18 04:54:17;;;;;;;2.95;1.08;;;13.50;70.90;;;;;;4485414;26;20010;-54
2024/04/18 04:56:58;;;;;;;1.23;0.70;;;13.50;70.90;;;;;;4475803;26;20432;-52
2024/04/18 04:59:42;;;;;;;1.88;0.63;;;13.50;70.70;;;;;;4500426;26;20013;-50
2024/04/18 05:02:23;;;;;;;1.73;0.77;;;13.50;70.70;;;;;;4497431;26;20021;-54
2024/04/18 05:05:08;;;;;;;1.33;0.80;;;13.50;71.00;;;;;;4464307;26;20345;-53
2024/04/18 05:07:52;;;;;;;2.05;0.80;;;13.50;71.20;;;;;;4468328;26;20048;-54
2024/04/18 05:10:55;;;;;;;1.17;0.70;;;13.50;71.50;;;;;;4467897;26;20022;-54
2024/04/18 05:13:36;;;;;;;1.88;0.90;;;13.50;72.00;;;;;;4453280;26;20467;-55
2024/04/18 05:16:45;;;;;;;2.45;0.73;;;13.50;72.30;;;;;;4472244;26;20014;-59
2024/04/18 05:19:25;;;;;;;2.45;1.08;;;13.50;72.30;;;;;;4494648;26;20071;-59
2024/04/18 05:22:08;;;;;;;3.92;0.93;;;13.50;72.00;;;;;;4497371;26;20017;-60
2024/04/18 05:24:51;;;;;;;1.40;0.77;;;13.60;71.90;;;;;;4494843;26;20005;-55
2024/04/18 05:27:43;;;;;;;0.93;0.68;;;13.60;71.90;;;;;;4471254;26;20013;-54
2024/04/18 05:31:01;;;;;;;3.70;1.00;;;13.70;72.00;;;;;;4477271;26;20017;-59
2024/04/18 05:33:45;;;;;;;1.35;0.70;;;13.70;71.90;;;;;;4442947;26;20089;-59
2024/04/18 05:36:27;;;;;;;4.72;1.00;;;13.80;71.70;;;;;;4490155;26;20013;-60
2024/04/18 05:39:19;;;;;;;4.18;0.93;;;13.90;71.30;;;;;;4486127;26;20413;-59
2024/04/18 05:42:05;;;;;;;2.80;0.80;;;13.90;71.50;;;;;;4466754;26;20029;-59
2024/04/18 05:44:48;;;;;;;1.10;0.70;;;14.00;70.80;;;;;;4467485;26;20015;-59
2024/04/18 05:47:31;;;;;;;6.10;0.90;;;14.00;70.90;;;;;;4468522;26;20014;-59
2024/04/18 05:50:14;;;;;;;2.17;0.88;;;14.00;70.90;;;;;;4468859;26;20081;-59
2024/04/18 05:52:57;;;;;;;4.07;0.65;;;14.00;70.40;;;;;;4467434;26;20081;-59
2024/04/18 05:56:00;;;;;;;3.45;1.25;;;14.10;70.60;;;;;;4459543;26;20425;-59
2024/04/18 05:58:47;;;;;;;2.45;0.80;;;14.10;71.00;;;;;;4479561;26;20454;-59
2024/04/18 06:01:30;;;;;;;3.40;0.80;;;14.20;70.70;;;;;;4496777;26;20018;-58
2024/04/18 06:04:13;;;;;;;2.72;1.05;;;14.30;70.60;;;;;;4512513;26;20008;-58
2024/04/18 06:07:14;;;;;;;0.93;0.75;;;14.40;70.10;;;;;;4452823;26;20010;-57
2024/04/18 06:09:57;;;;;;;4.45;1.05;;;14.50;69.80;;;;;;4467678;26;20015;-58
2024/04/18 06:12:40;;;;;;;3.50;0.65;;;14.60;69.40;;;;;;4461205;26;20018;-60
2024/04/18 06:15:25;;;;;;;1.63;0.73;;;14.60;69.10;;;;;;4464137;26;20085;-58
2024/04/18 06:18:08;;;;;;;4.68;1.20;;;14.60;69.00;;;;;;4497840;26;20039;-59
2024/04/18 06:20:52;;;;;;;1.55;1.00;;;14.60;69.00;;;;;;4475854;26;20077;-58
2024/04/18 06:23:35;;;;;;;4.15;0.82;;;14.60;69.40;;;;;;4467786;26;20381;-58
2024/04/18 06:26:33;;;;;;;3.30;0.70;;;14.70;69.60;;;;;;4466758;26;20080;-59
2024/04/18 06:29:19;;;;;;;2.28;1.67;;;14.80;69.60;;;;;;4467548;26;20030;-59
2024/04/18 06:32:05;;;;;;;1.77;0.60;;;14.90;69.60;;;;;;4465089;26;20073;-59
2024/04/18 06:34:48;;;;;;;3.92;0.70;;;14.90;69.10;;;;;;4483698;26;20087;-58
2024/04/18 06:37:32;;;;;;;2.08;0.70;;;15.00;68.70;;;;;;4492692;26;20341;-59
2024/04/18 06:40:15;;;;;;;2.20;0.52;;;15.10;67.80;;;;;;4453943;26;20580;-59
2024/04/18 06:43:01;;;;;;;3.17;0.60;;;15.20;66.80;;;;;;4454676;26;20015;-59
2024/04/18 06:45:46;;;;;;;2.45;0.70;;;15.30;66.30;;;;;;4441580;26;20349;-59
2024/04/18 06:48:31;;;;;;;2.40;0.60;;;15.30;66.20;;;;;;4489389;26;20018;-59
2024/04/18 06:51:15;;;;;;;5.10;0.70;;;15.40;65.80;;;;;;4475359;26;20030;-59
2024/04/18 06:53:59;;;;;;;3.05;0.57;;;15.50;65.30;;;;;;4488847;26;20010;-59
2024/04/18 06:56:42;;;;;;;2.90;0.90;;;15.50;65.20;;;;;;4493712;26;20076;-58
2024/04/18 06:59:25;;;;;;;2.20;0.50;;;15.50;65.30;;;;;;4494617;26;20068;-58
2024/04/18 07:02:09;;;;;;;2.40;0.80;;;15.60;65.20;;;;;;4493837;26;20059;-59
2024/04/18 07:05:14;;;;;;;2.80;0.60;;;15.60;64.80;;;;;;4490984;26;20018;-59
2024/04/18 07:08:07;;;;;;;2.33;0.60;;;15.60;64.70;;;;;;4455792;26;20087;-58
2024/04/18 07:10:50;;;;;;;2.92;0.60;;;15.60;64.60;;;;;;4451198;26;20013;-58
2024/04/18 07:13:42;;;;;;;3.13;0.95;;;15.60;64.50;;;;;;4469626;26;20124;-57
2024/04/18 07:16:43;;;;;;;2.30;0.73;;;15.60;64.30;;;;;;4495999;26;20418;-58
2024/04/18 07:19:45;;;;;;;1.83;0.77;;;15.60;64.10;;;;;;4479748;26;20382;-52
2024/04/18 07:22:50;;;;;;;4.57;1.00;;;15.50;64.00;;;;;;4495131;26;20018;-50
2024/04/18 07:25:43;;;;;;;1.50;0.70;;;15.40;63.50;;;;;;4484631;26;20054;-52
2024/04/18 07:28:41;;;;;;;1.50;1.30;;;15.30;62.70;;;;;;4462522;26;20011;-53
2024/04/18 07:31:24;;;;;;;3.30;0.88;;;15.30;63.40;;;;;;4464657;26;20009;-50
2024/04/18 07:34:29;;;;;;;0.63;0.60;;;15.20;64.00;;;;;;4482905;26;20043;-54
2024/04/18 07:37:12;;;;;;;2.20;0.70;;;15.10;64.30;;;;;;4458844;26;20491;-59
2024/04/18 07:40:00;;;;;;;1.63;0.80;;;15.10;64.70;;;;;;4496212;26;20075;-60
2024/04/18 07:42:45;;;;;;;3.60;0.73;;;15.00;65.30;;;;;;4476599;26;20006;-59
2024/04/18 07:45:30;;;;;;;4.78;0.90;;;14.90;65.70;;;;;;4462039;26;20053;-59
2024/04/18 07:48:13;;;;;;;2.72;0.85;;;14.90;66.20;;;;;;4479345;26;20079;-59
2024/04/18 07:50:59;;;;;;;3.08;1.38;;;14.80;66.60;;;;;;4497076;26;20079;-52
2024/04/18 07:53:42;;;;;;;1.75;0.93;;;14.80;66.60;;;;;;4469492;26;20085;-56
2024/04/18 07:56:28;;;;;;;0.90;0.57;;;14.80;67.40;;;;;;4486731;26;20048;-51
2024/04/18 07:59:13;;;;;;;2.55;0.75;;;14.80;67.30;;;;;;4495076;26;20083;-54
2024/04/18 08:01:57;;;;;;;1.13;0.60;;;14.80;66.30;;;;;;4493405;26;20013;-54
2024/04/18 08:04:41;;;;;;;2.03;0.57;;;14.80;66.00;;;;;;4475983;26;20127;-54
2024/04/18 08:07:33;;;;;;;2.55;0.77;;;14.80;66.40;;;;;;4462464;26;20413;-49
2024/04/18 08:10:18;;;;;;;2.92;1.15;;;14.80;66.20;;;;;;4464686;26;20080;-54
2024/04/18 08:13:06;;;;;;;0.98;0.68;;;14.80;65.90;;;;;;4463780;26;20080;-56
2024/04/18 08:15:52;;;;;;;1.45;0.60;;;14.90;65.90;;;;;;4448590;26;20131;-53
2024/04/18 08:18:38;;;;;;;5.85;1.55;;;14.90;65.90;;;;;;4460466;26;20019;-56
2024/04/18 08:21:21;;;;;;;1.48;0.82;;;14.90;65.50;;;;;;4478941;26;20077;-52
2024/04/18 08:24:04;;;;;;;3.75;1.10;;;15.00;64.50;;;;;;4482877;26;20043;-50
2024/04/18 08:26:47;;;;;;;0.50;0.50;;;15.00;63.70;;;;;;4491649;26;20017;-51
2024/04/18 08:29:33;;;;;;;2.25;0.90;;;15.10;62.90;;;;;;4485172;26;20009;-54
2024/04/18 08:32:16;;;;;;;3.30;0.40;;;15.10;62.00;;;;;;4485864;26;20078;-55
2024/04/18 08:35:00;;;;;;;3.60;0.90;;;15.10;62.00;;;;;;4491870;26;20018;-49
2024/04/18 08:37:42;;;;;;;7.78;2.38;;;15.10;60.40;;;;;;4489973;26;20087;-49
2024/04/18 08:40:29;;;;;;;2.72;1.10;;;15.10;59.80;;;;;;4490683;26;20040;-48
2024/04/18 08:43:12;;;;;;;1.55;0.60;;;15.20;60.60;;;;;;4490638;26;20009;-54
2024/04/18 08:45:58;;;;;;;3.97;0.93;;;15.20;59.10;;;;;;4477476;26;20009;-53
2024/04/18 08:48:42;;;;;;;4.38;0.95;;;15.10;59.00;;;;;;4477017;26;20085;-52
2024/04/18 08:51:26;;;;;;;1.75;0.52;;;15.10;59.60;;;;;;4474036;26;20017;-53
2024/04/18 08:54:10;;;;;;;3.30;0.70;;;15.10;59.80;;;;;;4478360;26;20421;-54
2024/04/18 08:56:57;;;;;;;3.45;0.68;;;15.10;60.40;;;;;;4478745;26;20191;-49
2024/04/18 08:59:40;;;;;;;0.82;0.70;;;15.20;59.30;;;;;;4477489;26;20392;-51
2024/04/18 09:02:26;;;;;;;3.90;0.77;;;15.20;58.90;;;;;;4480773;26;20453;-49
2024/04/18 09:05:10;;;;;;;1.52;0.88;;;15.30;58.40;;;;;;4491532;26;20407;-51
2024/04/18 09:07:57;;;;;;;3.03;0.60;;;15.30;59.00;;;;;;4489204;26;20103;-59
2024/04/18 09:10:41;;;;;;;2.42;0.80;;;15.40;58.00;;;;;;4487255;26;20194;-59
2024/04/18 09:13:24;;;;;;;3.72;0.80;;;15.40;57.80;;;;;;4492950;26;20009;-52
2024/04/18 09:16:09;;;;;;;3.10;0.85;;;15.40;58.90;;;;;;4491525;26;20025;-60
2024/04/18 09:18:54;;;;;;;1.20;0.63;;;15.40;59.50;;;;;;4490570;26;20337;-58
2024/04/18 09:21:38;;;;;;;2.85;0.63;;;15.40;59.20;;;;;;4491282;26;20375;-57
2024/04/18 09:24:21;;;;;;;0.98;0.57;;;15.40;59.50;;;;;;4488932;26;20511;-50
2024/04/18 09:27:04;;;;;;;1.65;0.68;;;15.40;59.70;;;;;;4490273;26;20428;-50
2024/04/18 09:29:48;;;;;;;2.53;0.70;;;15.50;58.60;;;;;;4491968;26;20457;-59
2024/04/18 09:32:31;;;;;;;5.38;1.10;;;15.50;57.50;;;;;;4491793;26;20088;-58
2024/04/18 09:35:19;;;;;;;2.25;0.70;;;15.60;57.50;;;;;;4494383;26;20017;-59
2024/04/18 09:38:03;;;;;;;2.10;0.98;;;15.60;55.90;;;;;;4493595;26;20018;-50
2024/04/18 09:40:57;;;;;;;2.75;0.90;;;15.60;55.80;;;;;;4413255;26;20018;-50
2024/04/18 09:43:47;;;;;;;2.70;0.95;;;15.70;55.00;;;;;;4484934;26;20005;-57
2024/04/18 09:46:31;;;;;;;1.88;0.70;;;15.70;56.40;;;;;;4494242;26;20044;-56
2024/04/18 09:49:15;;;;;;;1.55;0.68;;;15.70;55.10;;;;;;4491501;26;20046;-55
2024/04/18 09:52:02;;;;;;;4.45;0.80;;;15.80;55.80;;;;;;4494236;26;20047;-57
2024/04/18 09:54:46;;;;;;;2.40;0.68;;;15.80;57.80;;;;;;4492753;26;20009;-60
2024/04/18 09:57:32;;;;;;;4.00;0.85;;;15.80;56.20;;;;;;4493467;26;20009;-49
2024/04/18 10:00:16;;;;;;;2.22;0.68;;;15.80;55.90;;;;;;4493157;26;20021;-48
2024/04/18 10:03:00;;;;;;;2.17;0.80;;;15.80;56.80;;;;;;4493506;26;20075;-52
2024/04/18 10:05:47;;;;;;;3.60;0.57;;;15.80;57.60;;;;;;4493066;26;20013;-53
2024/04/18 10:08:38;;;;;;;1.20;0.88;;;15.80;57.50;;;;;;4489601;26;20022;-53
2024/04/18 10:11:24;;;;;;;5.10;0.70;;;15.90;57.60;;;;;;4492878;26;20072;-55
2024/04/18 10:14:10;;;;;;;3.03;0.82;;;15.90;57.30;;;;;;4462151;26;20783;-55
2024/04/18 10:16:53;;;;;;;3.75;0.88;;;15.90;56.40;;;;;;4498946;26;20195;-53
2024/04/18 10:19:36;;;;;;;2.05;1.02;;;15.90;55.80;;;;;;4490630;26;20341;-54
2024/04/18 10:22:22;;;;;;;1.17;0.90;;;15.90;56.70;;;;;;4493823;26;20083;-53
2024/04/18 10:25:22;;;;;;;2.97;1.15;;;15.90;56.50;;;;;;4490776;26;20029;-50
2024/04/18 10:28:06;;;;;;;3.40;0.85;;;15.90;56.90;;;;;;4490250;26;20047;-50
2024/04/18 10:30:50;;;;;;;1.75;0.90;;;15.90;57.00;;;;;;4491008;26;20659;-51
2024/04/18 10:33:35;;;;;;;8.57;1.10;;;15.90;57.20;;;;;;4488731;26;20014;-51
2024/04/18 10:36:19;;;;;;;4.95;1.02;;;15.90;57.70;;;;;;4494665;26;20016;-51
2024/04/18 10:39:02;;;;;;;5.68;0.75;;;15.90;57.60;;;;;;4499236;26;20013;-53
2024/04/18 10:41:52;;;;;;;2.90;1.02;;;15.90;57.80;;;;;;4491626;26;20529;-50
2024/04/18 10:44:35;;;;;;;2.58;0.63;;;15.90;58.10;;;;;;4486030;26;20014;-51
2024/04/18 10:47:22;;;;;;;3.67;0.90;;;15.90;58.40;;;;;;4490877;26;20102;-53
2024/04/18 10:50:06;;;;;;;1.05;0.70;;;15.90;58.60;;;;;;4494601;26;20306;-53
2024/04/18 10:52:49;;;;;;;4.25;2.08;;;15.90;58.20;;;;;;4492264;26;20452;-48
2024/04/18 10:55:33;;;;;;;3.25;0.95;;;15.90;58.30;;;;;;4492446;26;20072;-52
2024/04/18 10:58:19;;;;;;;3.40;0.70;;;15.90;57.70;;;;;;4489762;26;20054;-50
2024/04/18 11:01:03;;;;;;;3.15;0.80;;;15.80;57.90;;;;;;4478264;26;20053;-58
2024/04/18 11:03:45;;;;;;;5.03;1.23;;;15.80;59.50;;;;;;4479672;26;20075;-57
2024/04/18 11:06:29;;;;;;;2.92;0.80;;;15.80;58.20;;;;;;4480809;26;20063;-53
2024/04/18 11:09:15;;;;;;;4.95;0.88;;;15.80;58.90;;;;;;4493220;26;20017;-52
2024/04/18 11:11:58;;;;;;;1.35;0.77;;;15.80;59.90;;;;;;4511201;26;20014;-52
2024/04/18 11:14:47;;;;;;;4.43;1.25;;;15.80;59.80;;;;;;4493061;26;20077;-49
2024/04/18 11:17:31;;;;;;;3.35;1.27;;;15.90;59.90;;;;;;4492124;26;20005;-52
2024/04/18 11:20:14;;;;;;;1.83;0.88;;;15.80;59.10;;;;;;4492636;26;20017;-54
2024/04/18 11:22:57;;;;;;;3.63;1.30;;;15.80;59.50;;;;;;4493031;26;20077;-53
2024/04/18 11:25:48;;;;;;;1.38;0.55;;;15.80;59.60;;;;;;4495649;26;20054;-51
2024/04/18 11:28:31;;;;;;;1.70;0.90;;;15.90;60.70;;;;;;4491922;26;20325;-55
2024/04/18 11:31:17;;;;;;;1.38;0.63;;;15.80;60.30;;;;;;4461443;26;20018;-59
2024/04/18 11:34:01;;;;;;;4.07;1.13;;;15.80;60.50;;;;;;4472393;26;20476;-57
2024/04/18 11:36:43;;;;;;;3.65;1.00;;;15.80;61.00;;;;;;4492407;26;20079;-58
2024/04/18 11:39:30;;;;;;;5.68;1.00;;;15.90;61.00;;;;;;4489235;26;20067;-57
2024/04/18 11:42:13;;;;;;;5.53;1.25;;;15.90;60.10;;;;;;4493097;26;20464;-53
2024/04/18 11:44:55;;;;;;;7.45;1.02;;;15.90;59.00;;;;;;4488685;26;20081;-53
2024/04/18 11:47:41;;;;;;;3.13;0.98;;;15.80;58.70;;;;;;4490658;26;20087;-54
2024/04/18 11:50:25;;;;;;;4.60;1.08;;;15.80;59.20;;;;;;4486797;26;20137;-57
2024/04/18 11:53:09;;;;;;;5.18;1.08;;;15.90;59.20;;;;;;4485341;26;20544;-57
2024/04/18 11:55:52;;;;;;;1.98;0.77;;;15.80;60.10;;;;;;4487948;26;20018;-52
2024/04/18 11:58:42;;;;;;;3.42;1.08;;;15.80;60.70;;;;;;4484659;26;20065;-57
2024/04/18 12:01:46;;;;;;;1.33;1.13;;;15.80;60.70;;;;;;4482306;26;20009;-52
2024/04/18 12:04:38;;;;;;;4.78;0.90;;;15.80;59.60;;;;;;4457820;26;20084;-54
2024/04/18 12:07:30;;;;;;;4.75;1.20;;;15.80;60.10;;;;;;4486952;26;20068;-53
2024/04/18 12:10:13;;;;;;;3.58;0.98;;;15.80;60.10;;;;;;4449990;26;20122;-54
2024/04/18 12:13:16;;;;;;;2.75;0.80;;;15.90;59.70;;;;;;4487560;26;20039;-52
2024/04/18 12:16:08;;;;;;;2.50;0.93;;;15.80;59.90;;;;;;4491337;26;20022;-53
2024/04/18 12:18:51;;;;;;;4.80;1.27;;;15.80;59.90;;;;;;4489899;26;20021;-53
2024/04/18 12:21:46;;;;;;;8.68;1.00;;;15.80;59.70;;;;;;4506814;26;20033;-55
2024/04/18 12:24:29;;;;;;;6.22;1.50;;;15.80;60.00;;;;;;4461351;26;20014;-57
2024/04/18 12:27:22;;;;;;;2.90;0.90;;;15.80;59.60;;;;;;4488135;26;20341;-57
2024/04/18 12:30:10;;;;;;;4.55;1.40;;;15.70;60.30;;;;;;4487373;26;20010;-51
2024/04/18 12:32:59;;;;;;;5.60;1.08;;;15.70;60.50;;;;;;4493154;26;20013;-52
2024/04/18 12:35:42;;;;;;;5.40;0.90;;;15.70;60.90;;;;;;4487504;26;20017;-56
2024/04/18 12:38:28;;;;;;;4.55;1.17;;;15.60;61.20;;;;;;4503682;26;20072;-58
2024/04/18 12:41:13;;;;;;;4.00;1.38;;;15.60;61.10;;;;;;4490085;26;20010;-49
2024/04/18 12:43:56;;;;;;;3.00;0.98;;;15.60;60.40;;;;;;4492271;26;20061;-57
2024/04/18 12:46:58;;;;;;;;;;;15.60;60.50;;;;;;4493204;26;20140;-57
2024/04/18 12:49:59;;;;;;;3.50;0.77;;;15.60;59.20;;;;;;4483939;26;20056;-57
2024/04/18 12:52:44;;;;;;;4.03;0.95;;;15.60;59.50;;;;;;4492516;26;20039;-56
2024/04/18 12:55:30;;;;;;;3.95;0.85;;;15.60;59.10;;;;;;4492031;26;20071;-58
2024/04/18 12:58:13;;;;;;;3.25;0.90;;;15.60;59.40;;;;;;4491262;26;20013;-57
2024/04/18 13:00:56;;;;;;;2.55;1.13;;;15.60;59.50;;;;;;4491207;26;20014;-51
2024/04/18 13:03:54;;;;;;;3.45;1.00;;;15.60;59.60;;;;;;4492255;26;20013;-50
2024/04/18 13:06:57;;;;;;;6.88;1.60;;;15.50;59.30;;;;;;4490732;26;20089;-57
2024/04/18 13:09:43;;;;;;;5.57;1.20;;;15.60;59.30;;;;;;4491725;26;20014;-56
2024/04/18 13:12:28;;;;;;;5.20;1.00;;;15.60;59.00;;;;;;4494443;26;20039;-56
2024/04/18 13:15:11;;;;;;;4.20;1.13;;;15.60;59.40;;;;;;4493816;26;20033;-57
2024/04/18 13:17:54;;;;;;;5.00;0.63;;;15.60;59.40;;;;;;4487402;26;20075;-59
2024/04/18 13:20:38;;;;;;;4.15;1.10;;;15.60;59.20;;;;;;4491405;26;20440;-51
2024/04/18 13:23:23;;;;;;;4.28;0.90;;;15.60;58.40;;;;;;4474366;26;20014;-52
2024/04/18 13:26:09;;;;;;;2.80;1.05;;;15.60;58.30;;;;;;4495140;26;20088;-52
2024/04/18 13:28:57;;;;;;;6.43;1.08;;;15.60;58.80;;;;;;4493420;26;20084;-57
2024/04/18 13:31:59;;;;;;;3.75;1.02;;;15.60;59.10;;;;;;4493142;26;20337;-58
2024/04/18 13:34:42;;;;;;;4.22;0.90;;;15.60;59.10;;;;;;4493747;26;20006;-56
2024/04/18 13:37:25;;;;;;;5.13;1.15;;;15.60;58.90;;;;;;4492796;26;20364;-56
2024/04/18 13:40:27;;;;;;;6.38;1.00;;;15.60;58.70;;;;;;4512278;26;20010;-50
2024/04/18 13:43:07;;;;;;;8.75;1.58;;;15.70;58.70;;;;;;4505053;26;20330;-52
2024/04/18 13:45:53;;;;;;;3.20;0.70;;;15.70;58.40;;;;;;4494989;26;20067;-53
2024/04/18 13:48:39;;;;;;;6.25;1.05;;;15.70;59.10;;;;;;4492617;26;20011;-51
2024/04/18 13:51:22;;;;;;;5.18;1.13;;;15.70;59.10;;;;;;4491208;26;20021;-54
2024/04/18 13:54:05;;;;;;;4.30;1.20;;;15.70;58.60;;;;;;4492465;26;20013;-54
2024/04/18 13:56:48;;;;;;;3.60;0.93;;;15.70;58.00;;;;;;4483220;26;20077;-50
2024/04/18 13:59:52;;;;;;;4.43;1.17;;;15.70;58.00;;;;;;4489281;26;20071;-52
2024/04/18 14:02:57;;;;;;;6.75;1.38;;;15.70;58.60;;;;;;4477334;26;20687;-52
2024/04/18 14:05:40;;;;;;;3.90;0.90;;;15.70;59.00;;;;;;4494694;26;20014;-53
2024/04/18 14:08:23;;;;;;;3.58;1.30;;;15.70;59.10;;;;;;4494913;26;20442;-51
2024/04/18 14:11:18;;;;;;;6.38;1.27;;;15.70;58.80;;;;;;4489961;26;20022;-50
2024/04/18 14:14:19;;;;;;;9.48;1.48;;;15.70;58.70;;;;;;4491504;26;20067;-56
2024/04/18 14:20:23;;;;;;;5.95;1.08;;;15.70;58.30;;;;;;4456791;26;20014;-51
2024/04/18 14:23:06;;;;;;;5.03;1.10;;;15.70;58.20;;;;;;4475493;26;20315;-52
2024/04/18 14:25:50;;;;;;;4.63;1.00;;;15.60;58.10;;;;;;4453380;26;20334;-51
2024/04/18 14:28:33;;;;;;;8.93;1.75;;;15.60;57.70;;;;;;4488388;26;20015;-56
2024/04/18 14:31:34;;;;;;;3.60;1.27;;;15.60;58.20;;;;;;4493620;26;20014;-56
2024/04/18 14:34:37;;;;;;;7.57;1.30;;;15.60;58.50;;;;;;4484075;26;20088;-57
2024/04/18 14:37:23;;;;;;;5.03;1.30;;;15.60;58.30;;;;;;4495023;26;20014;-57